createdAt,value
2017-04-01T00:00:42.238Z,0
2017-04-01T00:01:41.188Z,0
2017-04-01T00:02:41.263Z,0
2017-04-01T00:03:41.169Z,0
2017-04-01T00:04:41.147Z,0
2017-04-01T00:05:40.837Z,0
2017-04-01T00:06:41.122Z,0
2017-04-01T00:07:41.109Z,0
2017-04-01T00:08:41.187Z,0
2017-04-01T00:09:41.089Z,0
2017-04-01T00:10:41.072Z,0
2017-04-01T00:11:41.463Z,0
2017-04-01T00:12:41.760Z,0
2017-04-01T00:13:41.118Z,0
2017-04-01T00:14:41.741Z,0
2017-04-01T00:15:41.148Z,0
2017-04-01T00:16:40.386Z,0
2017-04-01T00:17:40.869Z,0
2017-04-01T00:18:40.680Z,0
2017-04-01T00:19:41.012Z,0
2017-04-01T00:20:41.015Z,0
2017-04-01T00:21:40.643Z,0
2017-04-01T00:22:40.628Z,0
2017-04-01T00:23:41.205Z,0
2017-04-01T00:24:40.930Z,0
2017-04-01T00:25:41.120Z,0
2017-04-01T00:26:41.225Z,0
2017-04-01T00:27:41.540Z,0
2017-04-01T00:28:41.486Z,0
2017-04-01T00:29:41.329Z,0
2017-04-01T00:30:41.812Z,0
2017-04-01T00:31:40.840Z,0
2017-04-01T00:32:40.821Z,0
2017-04-01T00:33:40.173Z,0
2017-04-01T00:34:40.480Z,0
2017-04-01T00:35:40.474Z,0
2017-04-01T00:36:40.776Z,0
2017-04-01T00:37:40.433Z,0
2017-04-01T00:38:40.750Z,0
2017-04-01T00:39:40.433Z,0
2017-04-01T00:40:40.413Z,0
2017-04-01T00:41:41.326Z,0
2017-04-01T00:42:40.388Z,0
2017-04-01T00:43:40.698Z,0
2017-04-01T00:44:41.348Z,0
2017-04-01T00:45:40.346Z,0
2017-04-01T00:46:40.651Z,0
2017-04-01T00:47:40.324Z,0
2017-04-01T00:48:40.000Z,0
2017-04-01T00:49:40.292Z,0
2017-04-01T00:50:40.289Z,0
2017-04-01T00:51:40.620Z,0
2017-04-01T00:52:40.700Z,0
2017-04-01T00:53:40.696Z,0
2017-04-01T00:54:40.237Z,0
2017-04-01T00:55:40.534Z,0
2017-04-01T00:56:40.538Z,0
2017-04-01T00:57:40.501Z,0
2017-04-01T00:58:40.189Z,0
2017-04-01T00:59:40.495Z,0
2017-04-01T01:00:39.851Z,0
2017-04-01T01:01:40.475Z,0
2017-04-01T01:02:40.450Z,0
2017-04-01T01:03:40.438Z,0
2017-04-01T01:04:40.100Z,0
2017-04-01T01:05:40.088Z,0
2017-04-01T01:06:40.076Z,0
2017-04-01T01:07:40.062Z,0
2017-04-01T01:08:40.102Z,0
2017-04-01T01:09:39.998Z,0
2017-04-01T01:10:40.572Z,0
2017-04-01T01:11:40.708Z,0
2017-04-01T01:12:40.688Z,0
2017-04-01T01:13:40.548Z,0
2017-04-01T01:14:40.314Z,0
2017-04-01T01:15:39.960Z,0
2017-04-01T01:16:40.142Z,0
2017-04-01T01:17:40.601Z,0
2017-04-01T01:18:40.119Z,0
2017-04-01T01:19:40.544Z,0
2017-04-01T01:20:40.833Z,0
2017-04-01T01:21:40.299Z,0
2017-04-01T01:22:39.953Z,0
2017-04-01T01:23:40.563Z,0
2017-04-01T01:24:40.412Z,0
2017-04-01T01:25:40.152Z,0
2017-04-01T01:26:40.130Z,0
2017-04-01T01:27:40.181Z,0
2017-04-01T01:28:40.110Z,0
2017-04-01T01:29:40.735Z,0
2017-04-01T01:30:40.079Z,0
2017-04-01T01:31:39.452Z,0
2017-04-01T01:32:39.790Z,0
2017-04-01T01:33:39.434Z,0
2017-04-01T01:34:39.711Z,0
2017-04-01T01:35:40.527Z,0
2017-04-01T01:36:40.297Z,0
2017-04-01T01:37:40.596Z,0
2017-04-01T01:38:40.862Z,0
2017-04-01T01:39:39.673Z,0
2017-04-01T01:40:39.845Z,0
2017-04-01T01:41:39.641Z,0
2017-04-01T01:42:40.245Z,0
2017-04-01T01:43:39.609Z,0
2017-04-01T01:44:39.909Z,0
2017-04-01T01:45:39.584Z,0
2017-04-01T01:46:39.571Z,0
2017-04-01T01:47:40.614Z,0
2017-04-01T01:48:39.850Z,0
2017-04-01T01:49:40.015Z,0
2017-04-01T01:50:39.833Z,0
2017-04-01T01:51:39.794Z,0
2017-04-01T01:52:39.986Z,0
2017-04-01T01:53:40.040Z,0
2017-04-01T01:54:40.074Z,0
2017-04-01T01:55:39.757Z,0
2017-04-01T01:56:39.756Z,0
2017-04-01T01:57:39.739Z,0
2017-04-01T01:58:39.725Z,0
2017-04-01T01:59:39.713Z,0
2017-04-01T02:00:39.705Z,0
2017-04-01T02:01:39.786Z,0
2017-04-01T02:02:39.363Z,0
2017-04-01T02:03:40.124Z,0
2017-04-01T02:04:39.968Z,0
2017-04-01T02:05:40.172Z,0
2017-04-01T02:06:39.665Z,0
2017-04-01T02:07:39.865Z,0
2017-04-01T02:08:40.037Z,0
2017-04-01T02:09:40.328Z,0
2017-04-01T02:10:39.565Z,0
2017-04-01T02:11:39.551Z,0
2017-04-01T02:12:38.916Z,0
2017-04-01T02:13:39.527Z,0
2017-04-01T02:14:39.585Z,0
2017-04-01T02:15:38.877Z,0
2017-04-01T02:16:40.147Z,0
2017-04-01T02:17:39.211Z,0
2017-04-01T02:18:40.001Z,0
2017-04-01T02:19:39.133Z,0
2017-04-01T02:20:39.704Z,0
2017-04-01T02:21:39.746Z,0
2017-04-01T02:22:39.633Z,0
2017-04-01T02:23:39.667Z,0
2017-04-01T02:24:39.608Z,0
2017-04-01T02:25:39.903Z,0
2017-04-01T02:26:40.026Z,0
2017-04-01T02:27:39.021Z,0
2017-04-01T02:28:39.156Z,0
2017-04-01T02:29:38.994Z,0
2017-04-01T02:30:39.684Z,0
2017-04-01T02:31:38.668Z,0
2017-04-01T02:32:39.321Z,0
2017-04-01T02:33:39.263Z,0
2017-04-01T02:34:39.256Z,0
2017-04-01T02:35:39.286Z,0
2017-04-01T02:36:39.920Z,0
2017-04-01T02:37:39.630Z,0
2017-04-01T02:38:39.409Z,0
2017-04-01T02:39:39.617Z,0
2017-04-01T02:40:38.547Z,0
2017-04-01T02:41:39.193Z,0
2017-04-01T02:42:39.351Z,0
2017-04-01T02:43:38.819Z,0
2017-04-01T02:44:39.126Z,0
2017-04-01T02:45:39.700Z,0
2017-04-01T02:46:39.095Z,0
2017-04-01T02:47:38.758Z,0
2017-04-01T02:48:39.064Z,0
2017-04-01T02:49:39.054Z,0
2017-04-01T02:50:39.509Z,0
2017-04-01T02:51:38.706Z,0
2017-04-01T02:52:38.723Z,0
2017-04-01T02:53:38.675Z,0
2017-04-01T02:54:39.938Z,0
2017-04-01T02:55:38.823Z,0
2017-04-01T02:56:38.951Z,0
2017-04-01T02:57:39.053Z,0
2017-04-01T02:58:38.634Z,0
2017-04-01T02:59:39.187Z,0
2017-04-01T03:00:38.893Z,0
2017-04-01T03:01:38.874Z,0
2017-04-01T03:02:38.812Z,0
2017-04-01T03:03:38.552Z,0
2017-04-01T03:04:38.519Z,0
2017-04-01T03:05:38.843Z,0
2017-04-01T03:06:39.471Z,0
2017-04-01T03:07:39.304Z,0
2017-04-01T03:08:39.345Z,0
2017-04-01T03:09:38.407Z,0
2017-04-01T03:10:38.561Z,0
2017-04-01T03:11:38.886Z,0
2017-04-01T03:12:38.527Z,0
2017-04-01T03:13:38.780Z,0
2017-04-01T03:14:38.220Z,0
2017-04-01T03:15:38.066Z,0
2017-04-01T03:16:38.808Z,0
2017-04-01T03:17:38.356Z,0
2017-04-01T03:18:38.444Z,0
2017-04-01T03:19:38.348Z,0
2017-04-01T03:20:39.089Z,0
2017-04-01T03:21:38.937Z,0
2017-04-01T03:22:38.706Z,0
2017-04-01T03:23:38.471Z,0
2017-04-01T03:24:39.424Z,0
2017-04-01T03:25:38.456Z,0
2017-04-01T03:26:37.922Z,0
2017-04-01T03:27:38.209Z,0
2017-04-01T03:28:38.521Z,0
2017-04-01T03:29:38.519Z,0
2017-04-01T03:30:38.479Z,0
2017-04-01T03:31:38.150Z,0
2017-04-01T03:32:38.452Z,0
2017-04-01T03:33:38.444Z,0
2017-04-01T03:34:37.809Z,0
2017-04-01T03:35:38.100Z,0
2017-04-01T03:36:38.409Z,0
2017-04-01T03:37:38.385Z,0
2017-04-01T03:38:38.057Z,0
2017-04-01T03:39:38.761Z,0
2017-04-01T03:40:38.980Z,0
2017-04-01T03:41:38.046Z,0
2017-04-01T03:42:37.383Z,0
2017-04-01T03:43:38.184Z,0
2017-04-01T03:44:37.662Z,0
2017-04-01T03:45:38.425Z,0
2017-04-01T03:46:37.957Z,0
2017-04-01T03:47:37.624Z,0
2017-04-01T03:48:37.926Z,0
2017-04-01T03:49:38.390Z,0
2017-04-01T03:50:38.233Z,0
2017-04-01T03:51:38.192Z,0
2017-04-01T03:52:38.624Z,0
2017-04-01T03:53:38.417Z,0
2017-04-01T03:54:38.933Z,0
2017-04-01T03:55:38.142Z,0
2017-04-01T03:56:37.816Z,0
2017-04-01T03:57:38.355Z,0
2017-04-01T03:58:38.095Z,0
2017-04-01T03:59:37.773Z,0
2017-04-01T04:00:38.075Z,0
2017-04-01T04:01:38.053Z,0
2017-04-01T04:02:38.083Z,0
2017-04-01T04:03:37.931Z,0
2017-04-01T04:04:37.747Z,0
2017-04-01T04:05:38.315Z,0
2017-04-01T04:06:38.253Z,0
2017-04-01T04:07:38.267Z,0
2017-04-01T04:08:38.642Z,0
2017-04-01T04:09:38.336Z,0
2017-04-01T04:10:37.864Z,0
2017-04-01T04:11:38.259Z,0
2017-04-01T04:12:37.801Z,0
2017-04-01T04:13:37.586Z,0
2017-04-01T04:14:37.620Z,0
2017-04-01T04:15:37.899Z,0
2017-04-01T04:16:37.876Z,0
2017-04-01T04:17:37.849Z,0
2017-04-01T04:18:37.583Z,0
2017-04-01T04:19:37.836Z,0
2017-04-01T04:20:37.182Z,0
2017-04-01T04:21:37.169Z,0
2017-04-01T04:22:38.283Z,0
2017-04-01T04:23:38.114Z,0
2017-04-01T04:24:38.547Z,0
2017-04-01T04:25:37.430Z,0
2017-04-01T04:26:37.958Z,0
2017-04-01T04:27:37.709Z,0
2017-04-01T04:28:37.371Z,0
2017-04-01T04:29:37.365Z,0
2017-04-01T04:30:37.658Z,0
2017-04-01T04:31:37.596Z,0
2017-04-01T04:32:37.623Z,0
2017-04-01T04:33:37.996Z,0
2017-04-01T04:34:37.597Z,0
2017-04-01T04:35:37.651Z,0
2017-04-01T04:36:37.562Z,0
2017-04-01T04:37:38.623Z,0
2017-04-01T04:38:38.098Z,0
2017-04-01T04:39:38.618Z,0
2017-04-01T04:40:37.524Z,0
2017-04-01T04:41:37.837Z,0
2017-04-01T04:42:37.445Z,0
2017-04-01T04:43:37.162Z,0
2017-04-01T04:44:36.833Z,0
2017-04-01T04:45:37.130Z,0
2017-04-01T04:46:36.805Z,0
2017-04-01T04:47:37.554Z,0
2017-04-01T04:48:37.411Z,0
2017-04-01T04:49:37.075Z,0
2017-04-01T04:50:37.387Z,0
2017-04-01T04:51:37.064Z,0
2017-04-01T04:52:37.466Z,0
2017-04-01T04:53:39.507Z,0
2017-04-01T04:54:37.762Z,0
2017-04-01T04:55:37.686Z,0
2017-04-01T04:56:37.432Z,0
2017-04-01T04:57:37.574Z,0
2017-04-01T04:58:37.717Z,0
2017-04-01T04:59:37.111Z,0
2017-04-01T05:00:37.049Z,0
2017-04-01T05:01:37.898Z,0
2017-04-01T05:02:37.595Z,0
2017-04-01T05:03:37.241Z,0
2017-04-01T05:04:36.860Z,0
2017-04-01T05:05:38.088Z,0
2017-04-01T05:06:38.005Z,5
2017-04-01T05:07:38.061Z,5
2017-04-01T05:08:37.897Z,5
2017-04-01T05:09:37.935Z,5
2017-04-01T05:10:37.689Z,5
2017-04-01T05:11:37.070Z,5
2017-04-01T05:12:37.053Z,5
2017-04-01T05:13:36.725Z,10
2017-04-01T05:14:37.023Z,10
2017-04-01T05:15:36.691Z,10
2017-04-01T05:16:36.683Z,10
2017-04-01T05:17:36.990Z,10
2017-04-01T05:18:36.968Z,15
2017-04-01T05:19:36.634Z,15
2017-04-01T05:20:36.939Z,15
2017-04-01T05:21:37.767Z,15
2017-04-01T05:22:37.845Z,15
2017-04-01T05:23:38.016Z,15
2017-04-01T05:24:37.271Z,20
2017-04-01T05:25:36.957Z,20
2017-04-01T05:26:36.550Z,20
2017-04-01T05:27:36.853Z,20
2017-04-01T05:28:36.842Z,20
2017-04-01T05:29:36.498Z,25
2017-04-01T05:30:36.805Z,25
2017-04-01T05:31:36.794Z,25
2017-04-01T05:32:36.768Z,25
2017-04-01T05:33:35.805Z,30
2017-04-01T05:34:36.764Z,30
2017-04-01T05:35:36.786Z,30
2017-04-01T05:36:36.791Z,35
2017-04-01T05:37:37.262Z,35
2017-04-01T05:38:37.240Z,35
2017-04-01T05:39:36.834Z,35
2017-04-01T05:40:36.662Z,40
2017-04-01T05:41:36.640Z,40
2017-04-01T05:42:36.623Z,45
2017-04-01T05:43:36.615Z,45
2017-04-01T05:44:36.279Z,50
2017-04-01T05:45:36.263Z,50
2017-04-01T05:46:36.585Z,50
2017-04-01T05:47:36.571Z,50
2017-04-01T05:48:37.115Z,50
2017-04-01T05:49:35.816Z,55
2017-04-01T05:50:37.291Z,55
2017-04-01T05:51:37.766Z,55
2017-04-01T05:52:37.461Z,55
2017-04-01T05:53:36.969Z,55
2017-04-01T05:54:37.468Z,55
2017-04-01T05:55:36.131Z,55
2017-04-01T05:56:36.933Z,55
2017-04-01T05:57:36.440Z,60
2017-04-01T05:58:36.109Z,60
2017-04-01T05:59:36.402Z,60
2017-04-01T06:00:36.402Z,60
2017-04-01T06:01:36.372Z,60
2017-04-01T06:02:36.363Z,60
2017-04-01T06:03:36.633Z,60
2017-04-01T06:04:36.782Z,60
2017-04-01T06:05:36.301Z,60
2017-04-01T06:06:36.787Z,60
2017-04-01T06:07:36.987Z,60
2017-04-01T06:08:37.065Z,60
2017-04-01T06:09:37.064Z,65
2017-04-01T06:10:35.913Z,65
2017-04-01T06:11:36.164Z,65
2017-04-01T06:12:36.200Z,70
2017-04-01T06:13:36.308Z,70
2017-04-01T06:14:36.169Z,70
2017-04-01T06:15:36.487Z,70
2017-04-01T06:16:36.025Z,75
2017-04-01T06:17:36.127Z,75
2017-04-01T06:18:36.121Z,80
2017-04-01T06:19:36.110Z,75
2017-04-01T06:20:35.992Z,75
2017-04-01T06:21:36.291Z,70
2017-04-01T06:22:36.721Z,70
2017-04-01T06:23:36.449Z,70
2017-04-01T06:24:35.771Z,70
2017-04-01T06:25:36.027Z,75
2017-04-01T06:26:36.019Z,75
2017-04-01T06:27:35.998Z,75
2017-04-01T06:28:35.978Z,75
2017-04-01T06:29:35.998Z,75
2017-04-01T06:30:35.333Z,75
2017-04-01T06:31:35.639Z,75
2017-04-01T06:32:35.626Z,75
2017-04-01T06:33:35.917Z,75
2017-04-01T06:34:35.598Z,80
2017-04-01T06:35:35.886Z,80
2017-04-01T06:36:35.562Z,80
2017-04-01T06:37:36.156Z,80
2017-04-01T06:38:35.870Z,80
2017-04-01T06:39:35.999Z,80
2017-04-01T06:40:35.222Z,85
2017-04-01T06:41:35.808Z,85
2017-04-01T06:42:35.692Z,90
2017-04-01T06:43:35.801Z,90
2017-04-01T06:44:35.464Z,95
2017-04-01T06:45:35.757Z,95
2017-04-01T06:46:35.441Z,95
2017-04-01T06:47:35.154Z,100
2017-04-01T06:48:35.404Z,100
2017-04-01T06:49:35.083Z,105
2017-04-01T06:50:35.398Z,105
2017-04-01T06:51:35.677Z,105
2017-04-01T06:52:35.777Z,105
2017-04-01T06:53:35.354Z,105
2017-04-01T06:54:35.871Z,105
2017-04-01T06:55:35.633Z,105
2017-04-01T06:56:35.653Z,105
2017-04-01T06:57:35.298Z,105
2017-04-01T06:58:35.600Z,105
2017-04-01T06:59:35.593Z,105
2017-04-01T07:00:35.574Z,105
2017-04-01T07:01:35.568Z,105
2017-04-01T07:02:35.560Z,110
2017-04-01T07:03:35.258Z,110
2017-04-01T07:04:35.589Z,115
2017-04-01T07:05:35.506Z,115
2017-04-01T07:06:35.194Z,120
2017-04-01T07:07:35.490Z,125
2017-04-01T07:08:35.933Z,130
2017-04-01T07:09:35.968Z,130
2017-04-01T07:10:35.140Z,130
2017-04-01T07:11:35.464Z,125
2017-04-01T07:12:35.423Z,125
2017-04-01T07:13:35.408Z,125
2017-04-01T07:14:35.081Z,130
2017-04-01T07:15:35.073Z,135
2017-04-01T07:16:35.064Z,140
2017-04-01T07:17:34.728Z,135
2017-04-01T07:18:35.352Z,140
2017-04-01T07:19:35.338Z,140
2017-04-01T07:20:35.710Z,135
2017-04-01T07:21:35.872Z,140
2017-04-01T07:22:35.320Z,140
2017-04-01T07:23:35.648Z,145
2017-04-01T07:24:35.473Z,140
2017-04-01T07:25:35.263Z,140
2017-04-01T07:26:34.954Z,140
2017-04-01T07:27:34.927Z,140
2017-04-01T07:28:35.573Z,145
2017-04-01T07:29:34.885Z,150
2017-04-01T07:30:34.900Z,150
2017-04-01T07:31:34.892Z,155
2017-04-01T07:32:35.174Z,160
2017-04-01T07:33:35.151Z,165
2017-04-01T07:34:35.138Z,170
2017-04-01T07:35:35.133Z,170
2017-04-01T07:36:35.116Z,165
2017-04-01T07:37:35.106Z,165
2017-04-01T07:38:35.130Z,155
2017-04-01T07:39:35.666Z,155
2017-04-01T07:40:35.066Z,155
2017-04-01T07:41:35.071Z,160
2017-04-01T07:42:35.062Z,170
2017-04-01T07:43:35.030Z,180
2017-04-01T07:44:34.405Z,190
2017-04-01T07:45:34.698Z,185
2017-04-01T07:46:34.693Z,180
2017-04-01T07:47:34.370Z,180
2017-04-01T07:48:34.980Z,175
2017-04-01T07:49:35.009Z,165
2017-04-01T07:50:34.967Z,165
2017-04-01T07:51:34.992Z,165
2017-04-01T07:52:34.755Z,170
2017-04-01T07:53:35.096Z,180
2017-04-01T07:54:34.742Z,190
2017-04-01T07:55:34.602Z,185
2017-04-01T07:56:34.272Z,180
2017-04-01T07:57:33.936Z,175
2017-04-01T07:58:34.868Z,180
2017-04-01T07:59:34.237Z,195
2017-04-01T08:00:35.143Z,210
2017-04-01T08:01:34.876Z,225
2017-04-01T08:02:34.826Z,240
2017-04-01T08:03:35.224Z,255
2017-04-01T08:04:34.985Z,260
2017-04-01T08:05:34.584Z,260
2017-04-01T08:06:34.970Z,265
2017-04-01T08:07:35.122Z,265
2017-04-01T08:08:34.724Z,260
2017-04-01T08:09:35.262Z,260
2017-04-01T08:10:34.733Z,270
2017-04-01T08:11:34.412Z,265
2017-04-01T08:12:34.711Z,250
2017-04-01T08:13:34.395Z,255
2017-04-01T08:14:34.695Z,260
2017-04-01T08:15:34.368Z,260
2017-04-01T08:16:34.671Z,265
2017-04-01T08:17:34.433Z,270
2017-04-01T08:18:34.666Z,270
2017-04-01T08:19:34.323Z,265
2017-04-01T08:20:35.155Z,375
2017-04-01T08:21:35.005Z,740
2017-04-01T08:22:34.978Z,705
2017-04-01T08:23:34.248Z,630
2017-04-01T08:24:34.990Z,840
2017-04-01T08:25:34.803Z,825
2017-04-01T08:26:34.620Z,545
2017-04-01T08:27:34.685Z,605
2017-04-01T08:28:34.714Z,935
2017-04-01T08:29:33.954Z,965
2017-04-01T08:30:34.562Z,895
2017-04-01T08:31:34.229Z,380
2017-04-01T08:32:34.533Z,720
2017-04-01T08:33:34.535Z,670
2017-04-01T08:34:34.518Z,470
2017-04-01T08:35:34.534Z,475
2017-04-01T08:36:34.507Z,505
2017-04-01T08:37:34.546Z,425
2017-04-01T08:38:35.133Z,345
2017-04-01T08:39:34.971Z,330
2017-04-01T08:40:34.487Z,335
2017-04-01T08:41:34.644Z,330
2017-04-01T08:42:34.703Z,340
2017-04-01T08:43:34.197Z,355
2017-04-01T08:44:33.827Z,390
2017-04-01T08:45:34.437Z,400
2017-04-01T08:46:34.635Z,515
2017-04-01T08:47:34.395Z,520
2017-04-01T08:48:33.804Z,390
2017-04-01T08:49:34.380Z,385
2017-04-01T08:50:35.116Z,380
2017-04-01T08:51:34.767Z,360
2017-04-01T08:52:34.243Z,370
2017-04-01T08:53:34.691Z,375
2017-04-01T08:54:34.594Z,370
2017-04-01T08:55:34.160Z,405
2017-04-01T08:56:34.375Z,445
2017-04-01T08:57:34.374Z,425
2017-04-01T08:58:34.045Z,410
2017-04-01T08:59:33.731Z,415
2017-04-01T09:00:34.714Z,415
2017-04-01T09:01:34.343Z,365
2017-04-01T09:02:34.585Z,375
2017-04-01T09:03:34.383Z,420
2017-04-01T09:04:34.320Z,335
2017-04-01T09:05:34.333Z,350
2017-04-01T09:06:34.158Z,345
2017-04-01T09:07:34.728Z,340
2017-04-01T09:08:34.218Z,345
2017-04-01T09:09:34.679Z,365
2017-04-01T09:10:34.522Z,395
2017-04-01T09:11:34.277Z,380
2017-04-01T09:12:34.288Z,475
2017-04-01T09:13:33.950Z,520
2017-04-01T09:14:34.287Z,560
2017-04-01T09:15:34.266Z,585
2017-04-01T09:16:34.247Z,455
2017-04-01T09:17:33.608Z,400
2017-04-01T09:18:34.233Z,385
2017-04-01T09:19:33.782Z,330
2017-04-01T09:20:34.662Z,310
2017-04-01T09:21:34.563Z,315
2017-04-01T09:22:34.436Z,335
2017-04-01T09:23:34.035Z,395
2017-04-01T09:24:34.549Z,385
2017-04-01T09:25:34.535Z,380
2017-04-01T09:26:34.176Z,385
2017-04-01T09:27:33.862Z,360
2017-04-01T09:28:34.167Z,305
2017-04-01T09:29:33.843Z,285
2017-04-01T09:30:34.146Z,305
2017-04-01T09:31:34.077Z,320
2017-04-01T09:32:34.142Z,345
2017-04-01T09:33:34.128Z,320
2017-04-01T09:34:33.199Z,350
2017-04-01T09:35:34.126Z,395
2017-04-01T09:36:34.460Z,530
2017-04-01T09:37:34.472Z,460
2017-04-01T09:38:34.347Z,370
2017-04-01T09:39:33.931Z,375
2017-04-01T09:40:34.284Z,370
2017-04-01T09:41:33.140Z,375
2017-04-01T09:42:34.372Z,530
2017-04-01T09:43:33.849Z,490
2017-04-01T09:44:33.774Z,445
2017-04-01T09:45:33.947Z,400
2017-04-01T09:46:33.443Z,380
2017-04-01T09:47:33.421Z,420
2017-04-01T09:48:34.134Z,485
2017-04-01T09:49:33.817Z,595
2017-04-01T09:50:34.295Z,720
2017-04-01T09:51:34.110Z,695
2017-04-01T09:52:34.222Z,640
2017-04-01T09:53:33.885Z,635
2017-04-01T09:54:34.070Z,580
2017-04-01T09:55:34.162Z,555
2017-04-01T09:56:34.027Z,505
2017-04-01T09:57:33.987Z,445
2017-04-01T09:58:34.144Z,490
2017-04-01T09:59:33.652Z,440
2017-04-01T10:00:33.891Z,505
2017-04-01T10:01:33.961Z,500
2017-04-01T10:02:33.705Z,565
2017-04-01T10:03:33.940Z,715
2017-04-01T10:04:33.946Z,760
2017-04-01T10:05:33.951Z,855
2017-04-01T10:06:33.995Z,985
2017-04-01T10:07:34.040Z,920
2017-04-01T10:08:33.922Z,935
2017-04-01T10:09:34.130Z,865
2017-04-01T10:10:34.081Z,920
2017-04-01T10:11:33.917Z,720
2017-04-01T10:12:33.924Z,685
2017-04-01T10:13:33.588Z,665
2017-04-01T10:14:33.582Z,585
2017-04-01T10:15:33.573Z,645
2017-04-01T10:16:33.567Z,605
2017-04-01T10:17:33.878Z,430
2017-04-01T10:18:33.876Z,780
2017-04-01T10:19:33.878Z,455
2017-04-01T10:20:33.869Z,470
2017-04-01T10:21:34.070Z,510
2017-04-01T10:22:33.858Z,415
2017-04-01T10:23:33.873Z,375
2017-04-01T10:24:33.847Z,365
2017-04-01T10:25:33.854Z,440
2017-04-01T10:26:33.535Z,505
2017-04-01T10:27:33.848Z,590
2017-04-01T10:28:33.822Z,495
2017-04-01T10:29:33.801Z,660
2017-04-01T10:30:33.812Z,640
2017-04-01T10:31:33.814Z,565
2017-04-01T10:32:33.801Z,785
2017-04-01T10:33:33.808Z,930
2017-04-01T10:34:34.113Z,720
2017-04-01T10:35:34.086Z,545
2017-04-01T10:36:33.345Z,510
2017-04-01T10:37:33.308Z,515
2017-04-01T10:38:33.609Z,590
2017-04-01T10:39:33.964Z,885
2017-04-01T10:40:33.986Z,725
2017-04-01T10:41:33.770Z,800
2017-04-01T10:42:34.238Z,875
2017-04-01T10:43:33.758Z,680
2017-04-01T10:44:33.443Z,460
2017-04-01T10:45:33.122Z,435
2017-04-01T10:46:33.795Z,490
2017-04-01T10:47:33.691Z,570
2017-04-01T10:48:33.840Z,605
2017-04-01T10:49:33.005Z,735
2017-04-01T10:50:34.172Z,530
2017-04-01T10:51:33.607Z,505
2017-04-01T10:52:33.722Z,480
2017-04-01T10:53:33.418Z,435
2017-04-01T10:54:33.720Z,435
2017-04-01T10:55:33.812Z,535
2017-04-01T10:56:33.468Z,615
2017-04-01T10:57:33.081Z,590
2017-04-01T10:58:33.480Z,565
2017-04-01T10:59:33.412Z,550
2017-04-01T11:00:33.793Z,550
2017-04-01T11:01:33.691Z,550
2017-04-01T11:02:33.463Z,575
2017-04-01T11:03:33.380Z,565
2017-04-01T11:04:33.660Z,530
2017-04-01T11:05:33.653Z,575
2017-04-01T11:06:33.355Z,670
2017-04-01T11:07:34.004Z,700
2017-04-01T11:08:33.485Z,680
2017-04-01T11:09:33.495Z,695
2017-04-01T11:10:33.551Z,755
2017-04-01T11:11:33.347Z,740
2017-04-01T11:12:33.743Z,980
2017-04-01T11:13:33.385Z,1060
2017-04-01T11:14:32.991Z,1165
2017-04-01T11:15:33.614Z,1170
2017-04-01T11:16:33.297Z,1285
2017-04-01T11:17:33.597Z,1220
2017-04-01T11:18:33.292Z,1170
2017-04-01T11:19:33.608Z,1065
2017-04-01T11:20:33.290Z,935
2017-04-01T11:21:33.587Z,1060
2017-04-01T11:22:32.826Z,1155
2017-04-01T11:23:32.644Z,1145
2017-04-01T11:24:33.625Z,1050
2017-04-01T11:25:33.834Z,1040
2017-04-01T11:26:33.571Z,965
2017-04-01T11:27:33.453Z,1000
2017-04-01T11:28:33.404Z,1065
2017-04-01T11:29:33.554Z,1055
2017-04-01T11:30:33.552Z,1010
2017-04-01T11:31:33.553Z,1005
2017-04-01T11:32:33.555Z,970
2017-04-01T11:33:33.258Z,975
2017-04-01T11:34:33.245Z,970
2017-04-01T11:35:34.034Z,975
2017-04-01T11:36:33.226Z,1005
2017-04-01T11:37:33.540Z,1085
2017-04-01T11:38:33.881Z,985
2017-04-01T11:39:34.329Z,870
2017-04-01T11:40:34.001Z,730
2017-04-01T11:41:33.527Z,635
2017-04-01T11:42:32.900Z,610
2017-04-01T11:43:33.522Z,560
2017-04-01T11:44:33.515Z,545
2017-04-01T11:45:33.518Z,505
2017-04-01T11:46:33.511Z,515
2017-04-01T11:47:33.546Z,480
2017-04-01T11:48:33.495Z,440
2017-04-01T11:49:33.501Z,430
2017-04-01T11:50:33.490Z,420
2017-04-01T11:51:33.192Z,420
2017-04-01T11:52:33.484Z,410
2017-04-01T11:53:33.184Z,365
2017-04-01T11:54:33.485Z,345
2017-04-01T11:55:33.441Z,390
2017-04-01T11:56:33.475Z,580
2017-04-01T11:57:33.175Z,560
2017-04-01T11:58:32.841Z,515
2017-04-01T11:59:33.476Z,470
2017-04-01T12:00:33.450Z,460
2017-04-01T12:01:33.456Z,445
2017-04-01T12:02:33.125Z,405
2017-04-01T12:03:33.206Z,400
2017-04-01T12:04:33.122Z,390
2017-04-01T12:05:33.441Z,380
2017-04-01T12:06:33.428Z,385
2017-04-01T12:07:33.108Z,450
2017-04-01T12:08:33.416Z,465
2017-04-01T12:09:33.414Z,550
2017-04-01T12:10:33.786Z,510
2017-04-01T12:11:33.394Z,665
2017-04-01T12:12:33.076Z,510
2017-04-01T12:13:33.081Z,920
2017-04-01T12:14:33.064Z,595
2017-04-01T12:15:33.415Z,615
2017-04-01T12:16:33.373Z,845
2017-04-01T12:17:33.057Z,625
2017-04-01T12:18:33.053Z,620
2017-04-01T12:19:33.041Z,615
2017-04-01T12:20:33.034Z,705
2017-04-01T12:21:33.024Z,1135
2017-04-01T12:22:33.334Z,1490
2017-04-01T12:23:33.336Z,1445
2017-04-01T12:24:33.814Z,1335
2017-04-01T12:25:33.503Z,1200
2017-04-01T12:26:33.338Z,1055
2017-04-01T12:27:32.998Z,1010
2017-04-01T12:28:32.996Z,1440
2017-04-01T12:29:33.315Z,1280
2017-04-01T12:30:32.997Z,1550
2017-04-01T12:31:33.307Z,1540
2017-04-01T12:32:32.977Z,885
2017-04-01T12:33:33.317Z,1380
2017-04-01T12:34:32.977Z,630
2017-04-01T12:35:32.979Z,1330
2017-04-01T12:36:33.284Z,540
2017-04-01T12:37:32.848Z,655
2017-04-01T12:38:33.512Z,480
2017-04-01T12:39:33.153Z,510
2017-04-01T12:40:33.651Z,1280
2017-04-01T12:41:32.947Z,960
2017-04-01T12:42:32.955Z,1310
2017-04-01T12:43:33.160Z,825
2017-04-01T12:44:32.630Z,500
2017-04-01T12:45:32.994Z,475
2017-04-01T12:46:33.263Z,520
2017-04-01T12:47:32.620Z,835
2017-04-01T12:48:33.252Z,650
2017-04-01T12:49:32.927Z,505
2017-04-01T12:50:32.935Z,475
2017-04-01T12:51:32.951Z,455
2017-04-01T12:52:33.243Z,445
2017-04-01T12:53:32.617Z,460
2017-04-01T12:54:33.659Z,540
2017-04-01T12:55:33.623Z,550
2017-04-01T12:56:33.199Z,495
2017-04-01T12:57:33.245Z,500
2017-04-01T12:58:33.192Z,460
2017-04-01T12:59:33.191Z,390
2017-04-01T13:00:33.193Z,440
2017-04-01T13:01:33.192Z,460
2017-04-01T13:02:32.873Z,470
2017-04-01T13:03:32.859Z,470
2017-04-01T13:04:33.167Z,485
2017-04-01T13:05:32.543Z,500
2017-04-01T13:06:33.166Z,530
2017-04-01T13:07:33.156Z,560
2017-04-01T13:08:32.841Z,620
2017-04-01T13:09:32.855Z,715
2017-04-01T13:10:33.515Z,760
2017-04-01T13:11:32.824Z,815
2017-04-01T13:12:33.145Z,815
2017-04-01T13:13:32.499Z,795
2017-04-01T13:14:33.126Z,795
2017-04-01T13:15:32.497Z,750
2017-04-01T13:16:33.217Z,760
2017-04-01T13:17:33.113Z,715
2017-04-01T13:18:33.471Z,685
2017-04-01T13:19:33.235Z,680
2017-04-01T13:20:33.405Z,680
2017-04-01T13:21:33.524Z,645
2017-04-01T13:22:33.231Z,625
2017-04-01T13:23:33.050Z,600
2017-04-01T13:24:33.043Z,570
2017-04-01T13:25:32.932Z,515
2017-04-01T13:26:32.481Z,435
2017-04-01T13:27:32.745Z,395
2017-04-01T13:28:32.127Z,380
2017-04-01T13:29:33.049Z,465
2017-04-01T13:30:32.741Z,410
2017-04-01T13:31:32.730Z,405
2017-04-01T13:32:33.035Z,410
2017-04-01T13:33:33.029Z,490
2017-04-01T13:34:32.723Z,595
2017-04-01T13:35:32.397Z,620
2017-04-01T13:36:32.852Z,650
2017-04-01T13:37:33.302Z,620
2017-04-01T13:38:32.597Z,620
2017-04-01T13:39:33.265Z,650
2017-04-01T13:40:33.263Z,685
2017-04-01T13:41:32.983Z,715
2017-04-01T13:42:32.667Z,760
2017-04-01T13:43:32.983Z,850
2017-04-01T13:44:32.661Z,840
2017-04-01T13:45:32.373Z,790
2017-04-01T13:46:32.969Z,845
2017-04-01T13:47:32.966Z,925
2017-04-01T13:48:32.343Z,935
2017-04-01T13:49:32.948Z,670
2017-04-01T13:50:32.951Z,440
2017-04-01T13:51:32.628Z,410
2017-04-01T13:52:32.931Z,415
2017-04-01T13:53:32.925Z,625
2017-04-01T13:54:32.961Z,1000
2017-04-01T13:55:33.012Z,1015
2017-04-01T13:56:32.318Z,1055
2017-04-01T13:57:32.920Z,500
2017-04-01T13:58:32.904Z,790
2017-04-01T13:59:32.587Z,975
2017-04-01T14:00:32.900Z,965
2017-04-01T14:01:32.580Z,960
2017-04-01T14:02:32.884Z,975
2017-04-01T14:03:32.883Z,970
2017-04-01T14:04:32.875Z,925
2017-04-01T14:05:32.881Z,825
2017-04-01T14:06:32.956Z,840
2017-04-01T14:07:32.873Z,795
2017-04-01T14:08:33.082Z,780
2017-04-01T14:09:32.826Z,910